sensor_id;sensor_type;location;lat;lon;timestamp;pressure;altitude;pressure_sealevel;temperature;humidity
11190;BME280;5651;50.926;4.718;2023-03-14T00:00:15;98970.53;;;11.92;83.28
11190;BME280;5651;50.926;4.718;2023-03-14T00:02:41;98975.75;;;11.92;83.44
11190;BME280;5651;50.926;4.718;2023-03-14T00:05:08;98966.53;;;11.83;83.77
11190;BME280;5651;50.926;4.718;2023-03-14T00:07:35;98972.34;;;11.90;83.33
11190;BME280;5651;50.926;4.718;2023-03-14T00:10:08;98974.72;;;11.96;83.50
11190;BME280;5651;50.926;4.718;2023-03-14T00:12:34;98977.44;;;11.93;83.79
11190;BME280;5651;50.926;4.718;2023-03-14T00:15:00;98979.97;;;11.95;83.61
11190;BME280;5651;50.926;4.718;2023-03-14T00:17:27;98982.03;;;11.86;84.93
11190;BME280;5651;50.926;4.718;2023-03-14T00:19:53;98975.16;;;11.85;84.92
11190;BME280;5651;50.926;4.718;2023-03-14T00:22:20;98972.22;;;11.71;86.63
11190;BME280;5651;50.926;4.718;2023-03-14T00:24:46;98969.97;;;11.84;86.11
11190;BME280;5651;50.926;4.718;2023-03-14T00:27:12;98975.53;;;11.76;87.19
11190;BME280;5651;50.926;4.718;2023-03-14T00:29:38;98968.34;;;11.81;87.21
11190;BME280;5651;50.926;4.718;2023-03-14T00:32:04;98968.34;;;11.81;87.10
11190;BME280;5651;50.926;4.718;2023-03-14T00:34:31;98975.53;;;11.76;88.22
11190;BME280;5651;50.926;4.718;2023-03-14T00:36:57;98998.75;;;11.82;87.99
11190;BME280;5651;50.926;4.718;2023-03-14T00:39:23;98998.94;;;11.78;88.29
11190;BME280;5651;50.926;4.718;2023-03-14T00:41:49;98988.69;;;11.73;88.72
11190;BME280;5651;50.926;4.718;2023-03-14T00:44:14;98989.03;;;11.64;90.53
11190;BME280;5651;50.926;4.718;2023-03-14T00:46:40;98996.81;;;11.65;90.58
11190;BME280;5651;50.926;4.718;2023-03-14T00:49:06;98989.72;;;11.69;91.52
11190;BME280;5651;50.926;4.718;2023-03-14T00:51:32;98982.78;;;11.68;91.40
11190;BME280;5651;50.926;4.718;2023-03-14T00:53:59;98980.13;;;11.69;90.65
11190;BME280;5651;50.926;4.718;2023-03-14T00:56:25;98976.50;;;11.73;89.93
11190;BME280;5651;50.926;4.718;2023-03-14T00:58:54;98973.09;;;11.71;89.99
11190;BME280;5651;50.926;4.718;2023-03-14T01:01:20;98974.00;;;11.70;91.60
11190;BME280;5651;50.926;4.718;2023-03-14T01:03:46;98982.19;;;11.61;92.12
11190;BME280;5651;50.926;4.718;2023-03-14T01:06:14;98985.59;;;11.63;92.23
11190;BME280;5651;50.926;4.718;2023-03-14T01:08:41;98985.28;;;11.71;91.83
11190;BME280;5651;50.926;4.718;2023-03-14T01:11:12;98971.09;;;11.56;92.50
11190;BME280;5651;50.926;4.718;2023-03-14T01:13:39;98957.78;;;11.62;91.75
11190;BME280;5651;50.926;4.718;2023-03-14T01:16:07;98954.28;;;11.63;91.99
11190;BME280;5651;50.926;4.718;2023-03-14T01:18:33;98949.38;;;11.55;91.95
11190;BME280;5651;50.926;4.718;2023-03-14T01:21:03;98940.88;;;11.50;92.28
11190;BME280;5651;50.926;4.718;2023-03-14T01:23:29;98939.97;;;11.51;91.93
11190;BME280;5651;50.926;4.718;2023-03-14T01:25:55;98940.94;;;11.49;91.40
11190;BME280;5651;50.926;4.718;2023-03-14T01:28:21;98931.16;;;11.54;92.05
11190;BME280;5651;50.926;4.718;2023-03-14T01:30:47;98933.13;;;11.49;92.28
11190;BME280;5651;50.926;4.718;2023-03-14T01:33:12;98924.66;;;11.42;93.02
11190;BME280;5651;50.926;4.718;2023-03-14T01:35:39;98916.56;;;11.50;92.15
11190;BME280;5651;50.926;4.718;2023-03-14T01:38:05;98918.47;;;11.45;92.77
11190;BME280;5651;50.926;4.718;2023-03-14T01:40:31;98912.31;;;11.47;92.10
11190;BME280;5651;50.926;4.718;2023-03-14T01:42:58;98914.25;;;11.42;92.36
11190;BME280;5651;50.926;4.718;2023-03-14T01:48:53;98917.81;;;11.39;91.92
11190;BME280;5651;50.926;4.718;2023-03-14T01:51:29;98924.06;;;11.35;92.27
11190;BME280;5651;50.926;4.718;2023-03-14T01:54:03;98901.75;;;11.28;91.94
11190;BME280;5651;50.926;4.718;2023-03-14T01:56:30;98908.13;;;11.21;92.15
11190;BME280;5651;50.926;4.718;2023-03-14T01:58:58;98911.16;;;11.32;91.10
11190;BME280;5651;50.926;4.718;2023-03-14T02:01:26;98918.56;;;11.21;91.79
11190;BME280;5651;50.926;4.718;2023-03-14T02:03:54;98907.59;;;11.11;92.32
11190;BME280;5651;50.926;4.718;2023-03-14T02:06:24;98901.50;;;11.12;92.61
11190;BME280;5651;50.926;4.718;2023-03-14T02:08:52;98900.41;;;11.18;92.01
11190;BME280;5651;50.926;4.718;2023-03-14T02:11:18;98898.03;;;11.12;92.29
11190;BME280;5651;50.926;4.718;2023-03-14T02:13:44;98894.78;;;11.06;93.90
11190;BME280;5651;50.926;4.718;2023-03-14T02:16:10;98881.06;;;11.01;96.03
11190;BME280;5651;50.926;4.718;2023-03-14T02:18:37;98887.31;;;10.97;95.57
11190;BME280;5651;50.926;4.718;2023-03-14T02:23:37;98895.88;;;10.77;98.96
11190;BME280;5651;50.926;4.718;2023-03-14T02:26:13;98906.63;;;10.68;98.95
11190;BME280;5651;50.926;4.718;2023-03-14T02:28:41;98903.78;;;10.74;98.98
11190;BME280;5651;50.926;4.718;2023-03-14T02:31:07;98911.88;;;10.66;100.00
11190;BME280;5651;50.926;4.718;2023-03-14T02:33:35;98904.41;;;10.57;100.00
11190;BME280;5651;50.926;4.718;2023-03-14T02:36:05;98907.47;;;10.44;100.00
11190;BME280;5651;50.926;4.718;2023-03-14T02:41:04;98890.72;;;10.52;100.00
11190;BME280;5651;50.926;4.718;2023-03-14T02:43:30;98884.41;;;10.32;100.00
11190;BME280;5651;50.926;4.718;2023-03-14T02:45:55;98891.78;;;10.46;100.00
11190;BME280;5651;50.926;4.718;2023-03-14T02:48:26;98897.22;;;10.40;100.00
11190;BME280;5651;50.926;4.718;2023-03-14T02:50:55;98893.03;;;10.34;100.00
11190;BME280;5651;50.926;4.718;2023-03-14T02:53:25;98903.44;;;10.34;100.00
11190;BME280;5651;50.926;4.718;2023-03-14T02:55:52;98908.59;;;10.37;100.00
11190;BME280;5651;50.926;4.718;2023-03-14T02:58:19;98899.94;;;10.35;100.00
11190;BME280;5651;50.926;4.718;2023-03-14T03:00:45;98911.16;;;10.12;100.00
11190;BME280;5651;50.926;4.718;2023-03-14T03:03:11;98895.09;;;9.99;100.00
11190;BME280;5651;50.926;4.718;2023-03-14T03:05:37;98900.25;;;10.01;100.00
11190;BME280;5651;50.926;4.718;2023-03-14T03:08:03;98884.41;;;10.07;100.00
11190;BME280;5651;50.926;4.718;2023-03-14T03:10:30;98888.81;;;10.05;100.00
11190;BME280;5651;50.926;4.718;2023-03-14T03:12:56;98882.69;;;10.07;100.00
11190;BME280;5651;50.926;4.718;2023-03-14T03:15:22;98873.03;;;10.11;100.00
11190;BME280;5651;50.926;4.718;2023-03-14T03:17:47;98869.78;;;10.04;100.00
11190;BME280;5651;50.926;4.718;2023-03-14T03:20:13;98873.75;;;9.89;100.00
11190;BME280;5651;50.926;4.718;2023-03-14T03:22:39;98876.41;;;9.88;100.00
11190;BME280;5651;50.926;4.718;2023-03-14T03:25:06;98875.94;;;9.76;100.00
11190;BME280;5651;50.926;4.718;2023-03-14T03:27:33;98862.25;;;9.70;100.00
11190;BME280;5651;50.926;4.718;2023-03-14T03:29:59;98868.16;;;9.75;100.00
11190;BME280;5651;50.926;4.718;2023-03-14T03:32:25;98861.59;;;9.90;100.00
11190;BME280;5651;50.926;4.718;2023-03-14T03:34:51;98861.66;;;9.88;100.00
11190;BME280;5651;50.926;4.718;2023-03-14T03:37:17;98871.91;;;9.93;100.00
11190;BME280;5651;50.926;4.718;2023-03-14T03:39:43;98854.63;;;9.90;100.00
11190;BME280;5651;50.926;4.718;2023-03-14T03:42:09;98852.16;;;9.87;100.00
11190;BME280;5651;50.926;4.718;2023-03-14T03:44:35;98858.56;;;10.02;100.00
11190;BME280;5651;50.926;4.718;2023-03-14T03:47:01;98850.06;;;9.97;100.00
11190;BME280;5651;50.926;4.718;2023-03-14T03:49:33;98848.00;;;10.07;100.00
11190;BME280;5651;50.926;4.718;2023-03-14T03:51:59;98847.69;;;10.16;100.00
11190;BME280;5651;50.926;4.718;2023-03-14T03:54:24;98848.47;;;10.18;100.00
11190;BME280;5651;50.926;4.718;2023-03-14T03:56:51;98849.47;;;10.14;100.00
11190;BME280;5651;50.926;4.718;2023-03-14T03:59:16;98846.03;;;10.13;100.00
11190;BME280;5651;50.926;4.718;2023-03-14T04:01:42;98839.28;;;10.08;100.00
11190;BME280;5651;50.926;4.718;2023-03-14T04:04:08;98846.88;;;10.14;100.00
11190;BME280;5651;50.926;4.718;2023-03-14T04:06:34;98846.66;;;10.20;100.00
11190;BME280;5651;50.926;4.718;2023-03-14T04:09:00;98842.63;;;10.11;100.00
11190;BME280;5651;50.926;4.718;2023-03-14T04:11:26;98846.94;;;10.12;100.00
11190;BME280;5651;50.926;4.718;2023-03-14T04:13:52;98848.63;;;10.13;100.00
11190;BME280;5651;50.926;4.718;2023-03-14T04:16:21;98848.41;;;10.20;100.00
11190;BME280;5651;50.926;4.718;2023-03-14T04:18:47;98849.38;;;10.17;100.00
11190;BME280;5651;50.926;4.718;2023-03-14T04:21:13;98842.31;;;10.21;100.00
11190;BME280;5651;50.926;4.718;2023-03-14T04:23:39;98843.97;;;9.98;100.00
11190;BME280;5651;50.926;4.718;2023-03-14T04:26:04;98836.59;;;10.11;100.00
11190;BME280;5651;50.926;4.718;2023-03-14T04:28:30;98833.09;;;10.12;100.00
11190;BME280;5651;50.926;4.718;2023-03-14T04:30:56;98842.25;;;10.22;100.00
11190;BME280;5651;50.926;4.718;2023-03-14T04:33:22;98838.66;;;10.26;100.00
11190;BME280;5651;50.926;4.718;2023-03-14T04:35:48;98839.78;;;10.19;100.00
11190;BME280;5651;50.926;4.718;2023-03-14T04:38:15;98838.91;;;10.19;100.00
11190;BME280;5651;50.926;4.718;2023-03-14T04:40:41;98841.34;;;10.23;100.00
11190;BME280;5651;50.926;4.718;2023-03-14T04:43:08;98840.22;;;10.30;100.00
11190;BME280;5651;50.926;4.718;2023-03-14T04:45:35;98838.53;;;10.29;100.00
11190;BME280;5651;50.926;4.718;2023-03-14T04:48:01;98839.16;;;10.36;100.00
11190;BME280;5651;50.926;4.718;2023-03-14T04:50:27;98840.00;;;10.38;100.00
11190;BME280;5651;50.926;4.718;2023-03-14T04:52:53;98846.03;;;10.39;100.00
11190;BME280;5651;50.926;4.718;2023-03-14T04:55:19;98831.09;;;10.44;100.00
11190;BME280;5651;50.926;4.718;2023-03-14T04:57:44;98827.75;;;10.40;100.00
11190;BME280;5651;50.926;4.718;2023-03-14T05:00:11;98826.78;;;10.43;100.00
11190;BME280;5651;50.926;4.718;2023-03-14T05:02:37;98826.97;;;10.38;100.00
11190;BME280;5651;50.926;4.718;2023-03-14T05:05:03;98823.34;;;10.42;100.00
11190;BME280;5651;50.926;4.718;2023-03-14T05:07:28;98821.31;;;10.51;100.00
11190;BME280;5651;50.926;4.718;2023-03-14T05:09:54;98826.13;;;10.36;100.00
11190;BME280;5651;50.926;4.718;2023-03-14T05:12:21;98821.47;;;10.46;100.00
11190;BME280;5651;50.926;4.718;2023-03-14T05:14:47;98813.75;;;10.43;100.00
11190;BME280;5651;50.926;4.718;2023-03-14T05:17:12;98814.63;;;10.43;100.00
11190;BME280;5651;50.926;4.718;2023-03-14T05:19:40;98809.09;;;10.53;100.00
11190;BME280;5651;50.926;4.718;2023-03-14T05:22:06;98813.25;;;10.57;100.00
11190;BME280;5651;50.926;4.718;2023-03-14T05:24:32;98810.81;;;10.52;100.00
11190;BME280;5651;50.926;4.718;2023-03-14T05:26:58;98806.25;;;10.59;100.00
11190;BME280;5651;50.926;4.718;2023-03-14T05:29:24;98805.44;;;10.57;100.00
11190;BME280;5651;50.926;4.718;2023-03-14T05:31:50;98816.41;;;10.65;100.00
11190;BME280;5651;50.926;4.718;2023-03-14T05:34:16;98807.69;;;10.66;100.00
11190;BME280;5651;50.926;4.718;2023-03-14T05:36:41;98807.53;;;10.71;100.00
11190;BME280;5651;50.926;4.718;2023-03-14T05:39:07;98811.88;;;10.70;100.00
11190;BME280;5651;50.926;4.718;2023-03-14T05:41:33;98802.50;;;10.66;100.00
11190;BME280;5651;50.926;4.718;2023-03-14T05:43:59;98804.03;;;10.72;100.00
11190;BME280;5651;50.926;4.718;2023-03-14T05:46:24;98815.44;;;10.68;100.00
11190;BME280;5651;50.926;4.718;2023-03-14T05:48:50;98811.94;;;10.69;100.00
11190;BME280;5651;50.926;4.718;2023-03-14T05:51:16;98807.69;;;10.66;100.00
11190;BME280;5651;50.926;4.718;2023-03-14T05:53:42;98812.91;;;10.66;100.00
11190;BME280;5651;50.926;4.718;2023-03-14T05:56:08;98807.53;;;10.71;100.00
11190;BME280;5651;50.926;4.718;2023-03-14T05:58:34;98810.16;;;10.69;100.00
11190;BME280;5651;50.926;4.718;2023-03-14T06:01:04;98808.50;;;10.68;100.00
11190;BME280;5651;50.926;4.718;2023-03-14T06:03:31;98807.56;;;10.69;100.00
11190;BME280;5651;50.926;4.718;2023-03-14T06:05:57;98805.09;;;10.66;100.00
11190;BME280;5651;50.926;4.718;2023-03-14T06:08:23;98812.50;;;10.77;100.00
11190;BME280;5651;50.926;4.718;2023-03-14T06:10:50;98814.25;;;10.76;100.00
11190;BME280;5651;50.926;4.718;2023-03-14T06:13:16;98811.78;;;10.73;100.00
11190;BME280;5651;50.926;4.718;2023-03-14T06:15:42;98811.28;;;10.86;100.00
11190;BME280;5651;50.926;4.718;2023-03-14T06:18:08;98814.25;;;10.76;100.00
11190;BME280;5651;50.926;4.718;2023-03-14T06:20:38;98824.63;;;10.78;100.00
11190;BME280;5651;50.926;4.718;2023-03-14T06:23:08;98822.91;;;10.77;100.00
11190;BME280;5651;50.926;4.718;2023-03-14T06:25:34;98830.91;;;10.72;100.00
11190;BME280;5651;50.926;4.718;2023-03-14T06:28:01;98833.41;;;10.75;100.00
11190;BME280;5651;50.926;4.718;2023-03-14T06:30:27;98831.94;;;10.68;100.00
11190;BME280;5651;50.926;4.718;2023-03-14T06:32:53;98835.06;;;10.76;100.00
11190;BME280;5651;50.926;4.718;2023-03-14T06:35:19;98847.28;;;10.76;100.00
11190;BME280;5651;50.926;4.718;2023-03-14T06:37:45;98844.50;;;10.81;100.00
11190;BME280;5651;50.926;4.718;2023-03-14T06:40:11;98849.41;;;10.88;100.00
11190;BME280;5651;50.926;4.718;2023-03-14T06:42:44;98844.38;;;10.84;100.00
11190;BME280;5651;50.926;4.718;2023-03-14T06:45:10;98846.84;;;10.87;100.00
11190;BME280;5651;50.926;4.718;2023-03-14T06:47:36;98841.53;;;10.90;100.00
11190;BME280;5651;50.926;4.718;2023-03-14T06:50:05;98850.34;;;10.87;100.00
11190;BME280;5651;50.926;4.718;2023-03-14T06:52:31;98855.34;;;10.92;100.00
11190;BME280;5651;50.926;4.718;2023-03-14T06:54:56;98863.56;;;10.81;100.00
11190;BME280;5651;50.926;4.718;2023-03-14T06:57:22;98867.03;;;10.82;100.00
11190;BME280;5651;50.926;4.718;2023-03-14T06:59:48;98873.97;;;10.81;100.00
11190;BME280;5651;50.926;4.718;2023-03-14T07:02:13;98874.63;;;10.88;100.00
11190;BME280;5651;50.926;4.718;2023-03-14T07:04:39;98887.66;;;10.88;100.00
11190;BME280;5651;50.926;4.718;2023-03-14T07:07:06;98929.44;;;10.85;100.00
11190;BME280;5651;50.926;4.718;2023-03-14T07:09:32;98958.28;;;10.55;100.00
11190;BME280;5651;50.926;4.718;2023-03-14T07:11:58;98984.16;;;10.34;100.00
11190;BME280;5651;50.926;4.718;2023-03-14T07:14:24;98982.97;;;9.91;100.00
11190;BME280;5651;50.926;4.718;2023-03-14T07:16:50;99015.84;;;9.65;100.00
11190;BME280;5651;50.926;4.718;2023-03-14T07:19:16;99045.28;;;9.37;100.00
11190;BME280;5651;50.926;4.718;2023-03-14T07:21:41;99056.28;;;9.15;100.00
11190;BME280;5651;50.926;4.718;2023-03-14T07:24:07;99075.00;;;8.95;100.00
11190;BME280;5651;50.926;4.718;2023-03-14T07:26:33;99083.88;;;8.88;100.00
11190;BME280;5651;50.926;4.718;2023-03-14T07:28:59;99095.63;;;8.68;100.00
11190;BME280;5651;50.926;4.718;2023-03-14T07:31:25;99109.41;;;8.70;100.00
11190;BME280;5651;50.926;4.718;2023-03-14T07:33:50;99122.09;;;8.47;100.00
11190;BME280;5651;50.926;4.718;2023-03-14T07:36:16;99130.78;;;8.44;100.00
11190;BME280;5651;50.926;4.718;2023-03-14T07:38:42;99148.91;;;8.08;100.00
11190;BME280;5651;50.926;4.718;2023-03-14T07:41:08;99155.53;;;8.21;100.00
11190;BME280;5651;50.926;4.718;2023-03-14T07:43:34;99164.22;;;8.19;100.00
11190;BME280;5651;50.926;4.718;2023-03-14T07:46:00;99177.22;;;8.19;100.00
11190;BME280;5651;50.926;4.718;2023-03-14T07:48:27;99182.28;;;8.23;100.00
11190;BME280;5651;50.926;4.718;2023-03-14T07:50:53;99185.28;;;8.05;100.00
11190;BME280;5651;50.926;4.718;2023-03-14T07:53:20;99209.41;;;8.10;100.00
11190;BME280;5651;50.926;4.718;2023-03-14T07:55:46;99211.84;;;8.16;100.00
11190;BME280;5651;50.926;4.718;2023-03-14T07:58:13;99215.59;;;8.03;100.00
11190;BME280;5651;50.926;4.718;2023-03-14T08:00:39;99211.44;;;7.94;100.00
11190;BME280;5651;50.926;4.718;2023-03-14T08:03:05;99234.56;;;8.06;100.00
11190;BME280;5651;50.926;4.718;2023-03-14T08:05:34;99245.06;;;7.99;100.00
11190;BME280;5651;50.926;4.718;2023-03-14T08:08:00;99247.66;;;7.99;100.00
11190;BME280;5651;50.926;4.718;2023-03-14T08:10:26;99255.31;;;8.06;100.00
11190;BME280;5651;50.926;4.718;2023-03-14T08:12:55;99247.31;;;8.16;100.00
11190;BME280;5651;50.926;4.718;2023-03-14T08:15:22;99259.34;;;8.20;100.00
11190;BME280;5651;50.926;4.718;2023-03-14T08:17:48;99263.03;;;8.08;100.00
11190;BME280;5651;50.926;4.718;2023-03-14T08:20:17;99280.16;;;8.18;100.00
11190;BME280;5651;50.926;4.718;2023-03-14T08:22:43;99278.97;;;8.33;100.00
11190;BME280;5651;50.926;4.718;2023-03-14T08:25:09;99292.81;;;8.34;100.00
11190;BME280;5651;50.926;4.718;2023-03-14T08:27:35;99294.50;;;8.35;100.00
11190;BME280;5651;50.926;4.718;2023-03-14T08:30:06;99310.13;;;8.32;100.00
11190;BME280;5651;50.926;4.718;2023-03-14T08:32:32;99317.06;;;8.31;100.00
11190;BME280;5651;50.926;4.718;2023-03-14T08:34:58;99324.97;;;8.27;100.00
11190;BME280;5651;50.926;4.718;2023-03-14T08:37:24;99336.13;;;8.29;100.00
11190;BME280;5651;50.926;4.718;2023-03-14T08:39:51;99345.78;;;8.23;100.00
11190;BME280;5651;50.926;4.718;2023-03-14T08:42:17;99362.97;;;8.29;100.00
11190;BME280;5651;50.926;4.718;2023-03-14T08:44:43;99368.88;;;8.36;100.00
11190;BME280;5651;50.926;4.718;2023-03-14T08:47:09;99376.00;;;8.26;100.00
11190;BME280;5651;50.926;4.718;2023-03-14T08:49:35;99382.69;;;8.38;100.00
11190;BME280;5651;50.926;4.718;2023-03-14T08:52:04;99388.72;;;8.40;100.00
11190;BME280;5651;50.926;4.718;2023-03-14T08:54:30;99399.09;;;8.40;100.00
11190;BME280;5651;50.926;4.718;2023-03-14T08:56:57;99411.13;;;8.44;100.00
11190;BME280;5651;50.926;4.718;2023-03-14T08:59:23;99425.81;;;8.45;100.00
11190;BME280;5651;50.926;4.718;2023-03-14T09:01:49;99432.75;;;8.45;100.00
11190;BME280;5651;50.926;4.718;2023-03-14T09:04:15;99430.91;;;8.51;100.00
11190;BME280;5651;50.926;4.718;2023-03-14T09:06:41;99432.50;;;8.60;100.00
11190;BME280;5651;50.926;4.718;2023-03-14T09:09:07;99458.53;;;8.54;100.00
11190;BME280;5651;50.926;4.718;2023-03-14T09:11:33;99458.34;;;8.66;100.00
11190;BME280;5651;50.926;4.718;2023-03-14T09:13:59;99476.56;;;8.63;100.00
11190;BME280;5651;50.926;4.718;2023-03-14T09:16:25;99475.72;;;8.61;100.00
11190;BME280;5651;50.926;4.718;2023-03-14T09:18:51;99499.09;;;8.63;100.00
11190;BME280;5651;50.926;4.718;2023-03-14T09:21:22;99489.50;;;8.65;100.00
11190;BME280;5651;50.926;4.718;2023-03-14T09:23:48;99498.03;;;8.71;100.00
11190;BME280;5651;50.926;4.718;2023-03-14T09:26:14;99511.09;;;8.68;100.00
11190;BME280;5651;50.926;4.718;2023-03-14T09:28:40;99515.97;;;8.85;100.00
11190;BME280;5651;50.926;4.718;2023-03-14T09:31:10;99523.25;;;8.66;100.00
11190;BME280;5651;50.926;4.718;2023-03-14T09:33:37;99537.97;;;8.66;100.00
11190;BME280;5651;50.926;4.718;2023-03-14T09:36:03;99550.66;;;8.81;100.00
11190;BME280;5651;50.926;4.718;2023-03-14T09:38:29;99573.78;;;8.45;100.00
11190;BME280;5651;50.926;4.718;2023-03-14T09:40:57;99568.69;;;8.39;100.00
11190;BME280;5651;50.926;4.718;2023-03-14T09:43:24;99581.69;;;8.37;100.00
11190;BME280;5651;50.926;4.718;2023-03-14T09:45:51;99587.78;;;8.35;100.00
11190;BME280;5651;50.926;4.718;2023-03-14T09:48:22;99592.16;;;8.33;100.00
11190;BME280;5651;50.926;4.718;2023-03-14T09:50:54;99604.66;;;8.07;100.00
11190;BME280;5651;50.926;4.718;2023-03-14T09:53:38;99608.69;;;8.25;100.00
11190;BME280;5651;50.926;4.718;2023-03-14T09:56:10;99615.38;;;8.40;100.00
11190;BME280;5651;50.926;4.718;2023-03-14T09:58:41;99627.44;;;8.43;100.00
11190;BME280;5651;50.926;4.718;2023-03-14T10:01:11;99636.84;;;8.53;100.00
11190;BME280;5651;50.926;4.718;2023-03-14T10:03:42;99641.88;;;8.64;100.00
11190;BME280;5651;50.926;4.718;2023-03-14T10:06:13;99648.59;;;8.76;100.00
11190;BME280;5651;50.926;4.718;2023-03-14T10:08:43;99652.75;;;8.86;100.00
11190;BME280;5651;50.926;4.718;2023-03-14T10:11:17;99656.22;;;8.87;100.00
11190;BME280;5651;50.926;4.718;2023-03-14T10:14:07;99673.69;;;8.77;100.00
11190;BME280;5651;50.926;4.718;2023-03-14T10:16:35;99691.38;;;8.53;100.00
11190;BME280;5651;50.926;4.718;2023-03-14T10:19:04;99691.59;;;8.35;100.00
11190;BME280;5651;50.926;4.718;2023-03-14T10:21:31;99713.19;;;8.37;100.00
11190;BME280;5651;50.926;4.718;2023-03-14T10:24:10;99720.03;;;8.46;100.00
11190;BME280;5651;50.926;4.718;2023-03-14T10:26:42;99725.22;;;8.47;100.00
11190;BME280;5651;50.926;4.718;2023-03-14T10:29:11;99749.28;;;8.60;100.00
11190;BME280;5651;50.926;4.718;2023-03-14T10:32:18;99757.25;;;8.45;100.00
11190;BME280;5651;50.926;4.718;2023-03-14T10:35:03;99772.81;;;8.43;100.00
11190;BME280;5651;50.926;4.718;2023-03-14T10:37:29;99774.19;;;8.03;100.00
11190;BME280;5651;50.926;4.718;2023-03-14T10:39:58;99781.69;;;8.25;100.00
11190;BME280;5651;50.926;4.718;2023-03-14T10:42:42;99793.13;;;8.08;100.00
11190;BME280;5651;50.926;4.718;2023-03-14T10:45:35;99797.44;;;8.09;100.00
11190;BME280;5651;50.926;4.718;2023-03-14T10:48:52;99804.53;;;7.95;100.00
11190;BME280;5651;50.926;4.718;2023-03-14T10:51:07;99815.88;;;7.83;100.00
11190;BME280;5651;50.926;4.718;2023-03-14T10:53:45;99834.09;;;7.78;100.00
11190;BME280;5651;50.926;4.718;2023-03-14T10:56:20;99834.91;;;7.84;100.00
11190;BME280;5651;50.926;4.718;2023-03-14T10:58:51;99840.22;;;7.70;100.00
11190;BME280;5651;50.926;4.718;2023-03-14T11:01:46;99848.81;;;7.76;100.00
11190;BME280;5651;50.926;4.718;2023-03-14T11:07:27;99882.47;;;7.83;100.00
11190;BME280;5651;50.926;4.718;2023-03-14T11:24:02;99931.31;;;7.22;100.00
11190;BME280;5651;50.926;4.718;2023-03-14T11:32:56;99955.38;;;7.42;100.00
11190;BME280;5651;50.926;4.718;2023-03-14T11:35:35;99955.31;;;7.55;100.00
11190;BME280;5651;50.926;4.718;2023-03-14T11:40:28;99969.94;;;7.62;100.00
11190;BME280;5651;50.926;4.718;2023-03-14T11:43:15;99956.00;;;7.77;100.00
11190;BME280;5651;50.926;4.718;2023-03-14T11:45:43;99970.59;;;7.90;100.00
11190;BME280;5651;50.926;4.718;2023-03-14T11:48:20;99973.94;;;8.03;100.00
11190;BME280;5651;50.926;4.718;2023-03-14T11:50:52;99977.22;;;8.24;100.00
11190;BME280;5651;50.926;4.718;2023-03-14T11:55:56;99989.97;;;8.53;100.00
11190;BME280;5651;50.926;4.718;2023-03-14T11:58:33;99991.47;;;8.73;100.00
11190;BME280;5651;50.926;4.718;2023-03-14T12:01:06;99995.53;;;8.96;100.00
11190;BME280;5651;50.926;4.718;2023-03-14T12:03:49;100003.28;;;9.02;100.00
11190;BME280;5651;50.926;4.718;2023-03-14T12:06:28;100007.59;;;9.04;100.00
11190;BME280;5651;50.926;4.718;2023-03-14T12:09:02;100020.56;;;9.06;100.00
11190;BME280;5651;50.926;4.718;2023-03-14T12:14:27;100031.25;;;8.78;100.00
11190;BME280;5651;50.926;4.718;2023-03-14T12:16:56;100026.13;;;8.70;100.00
11190;BME280;5651;50.926;4.718;2023-03-14T12:21:51;100035.88;;;8.50;100.00
11190;BME280;5651;50.926;4.718;2023-03-14T12:24:20;100042.91;;;8.31;100.00
11190;BME280;5651;50.926;4.718;2023-03-14T12:26:56;100059.31;;;8.37;100.00
11190;BME280;5651;50.926;4.718;2023-03-14T12:29:22;100071.34;;;8.46;100.00
11190;BME280;5651;50.926;4.718;2023-03-14T12:31:49;100081.78;;;8.40;100.00
11190;BME280;5651;50.926;4.718;2023-03-14T12:42:37;100116.06;;;7.41;100.00
11190;BME280;5651;50.926;4.718;2023-03-14T12:48:00;100112.72;;;7.06;100.00
11190;BME280;5651;50.926;4.718;2023-03-14T12:50:35;100115.22;;;7.37;100.00
11190;BME280;5651;50.926;4.718;2023-03-14T12:55:36;100129.88;;;7.41;100.00
11190;BME280;5651;50.926;4.718;2023-03-14T12:58:20;100138.47;;;7.60;100.00
11190;BME280;5651;50.926;4.718;2023-03-14T13:00:56;100134.13;;;7.63;100.00
11190;BME280;5651;50.926;4.718;2023-03-14T13:03:25;100142.72;;;7.72;100.00
11190;BME280;5651;50.926;4.718;2023-03-14T13:05:57;100149.66;;;7.72;100.00
11190;BME280;5651;50.926;4.718;2023-03-14T13:11:12;100155.72;;;7.69;100.00
11190;BME280;5651;50.926;4.718;2023-03-14T13:13:45;100162.63;;;7.69;100.00
11190;BME280;5651;50.926;4.718;2023-03-14T13:16:17;100166.97;;;7.68;100.00
11190;BME280;5651;50.926;4.718;2023-03-14T13:18:49;100161.75;;;7.70;100.00
11190;BME280;5651;50.926;4.718;2023-03-14T13:21:21;100173.84;;;7.72;100.00
11190;BME280;5651;50.926;4.718;2023-03-14T13:24:02;100184.22;;;7.75;100.00
11190;BME280;5651;50.926;4.718;2023-03-14T13:26:35;100206.75;;;7.66;100.00
11190;BME280;5651;50.926;4.718;2023-03-14T13:29:09;100229.25;;;7.37;100.00
11190;BME280;5651;50.926;4.718;2023-03-14T13:31:44;100247.41;;;7.22;100.00
11190;BME280;5651;50.926;4.718;2023-03-14T13:34:10;100267.28;;;7.13;100.00
11190;BME280;5651;50.926;4.718;2023-03-14T13:36:37;100263.81;;;7.01;100.00
11190;BME280;5651;50.926;4.718;2023-03-14T13:39:06;100238.75;;;6.65;100.00
11190;BME280;5651;50.926;4.718;2023-03-14T13:41:31;100234.44;;;6.66;100.00
11190;BME280;5651;50.926;4.718;2023-03-14T13:44:03;100237.84;;;6.48;100.00
11190;BME280;5651;50.926;4.718;2023-03-14T13:46:33;100238.75;;;6.56;100.00
11190;BME280;5651;50.926;4.718;2023-03-14T13:49:05;100253.44;;;6.60;100.00
11190;BME280;5651;50.926;4.718;2023-03-14T13:51:32;100256.88;;;6.61;100.00
11190;BME280;5651;50.926;4.718;2023-03-14T13:53:58;100268.97;;;6.66;100.00
11190;BME280;5651;50.926;4.718;2023-03-14T13:56:27;100272.44;;;6.72;100.00
11190;BME280;5651;50.926;4.718;2023-03-14T13:58:53;100281.09;;;6.85;100.00
11190;BME280;5651;50.926;4.718;2023-03-14T14:01:19;100286.25;;;6.88;100.00
11190;BME280;5651;50.926;4.718;2023-03-14T14:03:49;100294.03;;;6.88;100.00
11190;BME280;5651;50.926;4.718;2023-03-14T14:06:36;100294.91;;;6.90;100.00
11190;BME280;5651;50.926;4.718;2023-03-14T14:09:18;100302.69;;;7.02;100.00